createdAt,value
2023-11-30T00:00:14.240Z,3.70
2023-11-30T00:02:40.900Z,3.70
2023-11-30T00:05:09.912Z,3.60
2023-11-30T00:07:36.761Z,3.60
2023-11-30T00:10:04.558Z,3.50
2023-11-30T00:12:31.536Z,3.50
2023-11-30T00:14:58.194Z,3.60
2023-11-30T00:17:24.785Z,3.50
2023-11-30T00:19:51.380Z,3.60
2023-11-30T00:22:17.950Z,3.50
2023-11-30T00:24:44.537Z,3.50
2023-11-30T00:27:11.174Z,3.50
2023-11-30T00:29:37.763Z,3.50
2023-11-30T00:32:04.683Z,3.60
2023-11-30T00:34:31.282Z,3.60
2023-11-30T00:36:57.935Z,3.60
2023-11-30T00:39:24.559Z,3.60
2023-11-30T00:41:51.291Z,3.60
2023-11-30T00:44:19.406Z,3.60
2023-11-30T00:46:46.170Z,3.60
2023-11-30T00:49:12.803Z,3.60
2023-11-30T00:51:39.422Z,3.60
2023-11-30T00:54:06.141Z,3.60
2023-11-30T00:56:32.780Z,3.70
2023-11-30T00:58:59.380Z,3.70
2023-11-30T01:01:26.104Z,3.70
2023-11-30T01:03:52.773Z,3.70
2023-11-30T01:06:19.440Z,3.70
2023-11-30T01:08:46.051Z,3.60
2023-11-30T01:11:12.655Z,3.70
2023-11-30T01:13:39.273Z,3.70
2023-11-30T01:16:06.405Z,3.60
2023-11-30T01:18:33.670Z,3.70
2023-11-30T01:21:00.360Z,3.70
2023-11-30T01:23:27.086Z,3.70
2023-11-30T01:25:53.685Z,3.80
2023-11-30T01:28:20.264Z,3.90
2023-11-30T01:30:46.866Z,3.90
2023-11-30T01:33:13.564Z,4.00
2023-11-30T01:35:40.247Z,4.00
2023-11-30T01:38:06.832Z,4.00
2023-11-30T01:40:33.520Z,4.10
2023-11-30T01:43:00.195Z,4.10
2023-11-30T01:45:26.995Z,4.10
2023-11-30T01:47:53.889Z,4.10
2023-11-30T01:50:20.696Z,4.10
2023-11-30T01:52:48.302Z,4.10
2023-11-30T01:55:15.196Z,4.00
2023-11-30T01:57:42.480Z,4.00
2023-11-30T02:00:11.124Z,4.10
2023-11-30T02:02:37.997Z,4.00
2023-11-30T02:05:04.890Z,4.10
2023-11-30T02:07:31.535Z,4.10
2023-11-30T02:09:58.191Z,4.20
2023-11-30T02:12:24.885Z,4.10
2023-11-30T02:14:51.496Z,4.10
2023-11-30T02:17:18.111Z,4.10
2023-11-30T02:19:44.903Z,4.10
2023-11-30T02:22:11.503Z,4.00
2023-11-30T02:24:38.155Z,4.00
2023-11-30T02:27:04.957Z,4.00
2023-11-30T02:29:31.572Z,4.00
2023-11-30T02:31:58.220Z,3.90
2023-11-30T02:34:24.860Z,3.80
2023-11-30T02:36:51.460Z,3.80
2023-11-30T02:39:18.079Z,3.70
2023-11-30T02:41:44.693Z,3.60
2023-11-30T02:44:11.274Z,3.50
2023-11-30T02:46:37.998Z,3.40
2023-11-30T02:49:04.598Z,3.40
2023-11-30T02:51:31.281Z,3.30
2023-11-30T02:53:57.934Z,3.20
2023-11-30T02:56:24.572Z,3.10
2023-11-30T02:58:51.180Z,3.00
2023-11-30T03:01:17.788Z,3.00
2023-11-30T03:03:44.446Z,3.00
2023-11-30T03:06:12.502Z,3.00
2023-11-30T03:08:39.275Z,3.00
2023-11-30T03:11:06.096Z,3.00
2023-11-30T03:13:32.994Z,3.00
2023-11-30T03:15:59.691Z,3.10
2023-11-30T03:18:26.470Z,3.10
2023-11-30T03:20:53.241Z,3.20
2023-11-30T03:23:19.910Z,3.20
2023-11-30T03:25:47.021Z,3.20
2023-11-30T03:28:13.892Z,3.30
2023-11-30T03:30:40.579Z,3.30
2023-11-30T03:33:07.324Z,3.30
2023-11-30T03:35:33.997Z,3.30
2023-11-30T03:38:00.611Z,3.30
2023-11-30T03:40:27.187Z,3.40
2023-11-30T03:42:53.783Z,3.40
2023-11-30T03:45:20.384Z,3.40
2023-11-30T03:47:47.056Z,3.50
2023-11-30T03:50:13.754Z,3.50
2023-11-30T03:52:40.451Z,3.60
2023-11-30T03:55:07.436Z,3.60
2023-11-30T03:57:34.190Z,3.60
2023-11-30T04:00:00.847Z,3.60
2023-11-30T04:02:27.557Z,3.70
2023-11-30T04:04:54.279Z,3.70
2023-11-30T04:07:20.906Z,3.80
2023-11-30T04:09:48.559Z,3.80
2023-11-30T04:12:15.171Z,3.80
2023-11-30T04:14:41.835Z,3.80
2023-11-30T04:17:08.429Z,3.90
2023-11-30T04:19:35.026Z,3.90
2023-11-30T04:22:01.600Z,4.00
2023-11-30T04:24:28.284Z,4.00
2023-11-30T04:26:54.932Z,4.00
2023-11-30T04:29:21.581Z,4.10
2023-11-30T04:31:48.183Z,4.00
2023-11-30T04:34:14.842Z,4.00
2023-11-30T04:36:41.437Z,4.10
2023-11-30T04:39:08.228Z,4.10
2023-11-30T04:41:34.814Z,4.00
2023-11-30T04:44:01.810Z,4.10
2023-11-30T04:46:28.829Z,4.10
2023-11-30T04:48:55.891Z,4.00
2023-11-30T04:51:22.902Z,4.00
2023-11-30T04:53:50.278Z,4.10
2023-11-30T04:56:17.141Z,4.10
2023-11-30T04:58:43.986Z,4.10
2023-11-30T05:01:10.634Z,4.10
2023-11-30T05:03:37.548Z,4.20
2023-11-30T05:06:04.567Z,4.20
2023-11-30T05:08:31.200Z,4.10
2023-11-30T05:10:59.240Z,4.10
2023-11-30T05:13:25.833Z,4.20
2023-11-30T05:15:52.457Z,4.20
2023-11-30T05:18:19.438Z,4.20
2023-11-30T05:20:46.241Z,4.20
2023-11-30T05:23:12.923Z,4.20
2023-11-30T05:25:40.886Z,4.40
2023-11-30T05:28:07.717Z,4.20
2023-11-30T05:30:34.464Z,4.20
2023-11-30T05:33:01.190Z,4.20
2023-11-30T05:35:27.838Z,4.10
2023-11-30T05:37:54.476Z,4.10
2023-11-30T05:40:21.236Z,4.10
2023-11-30T05:42:48.637Z,4.10
2023-11-30T05:45:15.464Z,4.10
2023-11-30T05:47:42.096Z,4.00
2023-11-30T05:50:10.746Z,4.00
2023-11-30T05:52:37.345Z,3.90
2023-11-30T05:55:05.357Z,3.80
2023-11-30T05:57:32.005Z,3.80
2023-11-30T05:59:58.763Z,3.90
2023-11-30T06:02:27.666Z,3.90
2023-11-30T06:04:55.341Z,3.90
2023-11-30T06:07:22.271Z,4.00
2023-11-30T06:09:48.934Z,4.00
2023-11-30T06:12:15.596Z,4.00
2023-11-30T06:14:42.278Z,4.00
2023-11-30T06:17:08.877Z,4.10
2023-11-30T06:19:35.553Z,4.10
2023-11-30T06:22:02.321Z,4.20
2023-11-30T06:24:30.734Z,4.20
2023-11-30T06:26:59.235Z,4.20
2023-11-30T06:29:26.304Z,4.20
2023-11-30T06:31:52.918Z,4.20
2023-11-30T06:34:19.534Z,4.20
2023-11-30T06:36:46.400Z,4.20
2023-11-30T06:39:13.592Z,4.20
2023-11-30T06:41:40.193Z,4.20
2023-11-30T06:44:06.776Z,4.10
2023-11-30T06:46:33.445Z,4.10
2023-11-30T06:49:00.021Z,4.00
2023-11-30T06:51:26.689Z,4.00
2023-11-30T06:53:53.282Z,4.00
2023-11-30T06:56:19.944Z,4.00
2023-11-30T06:58:46.504Z,4.00
2023-11-30T07:01:13.226Z,4.00
2023-11-30T07:03:42.904Z,4.00
2023-11-30T07:06:10.905Z,3.90
2023-11-30T07:08:37.660Z,3.90
2023-11-30T07:11:08.500Z,3.90
2023-11-30T07:13:35.163Z,3.80
2023-11-30T07:16:01.917Z,3.80
2023-11-30T07:18:28.727Z,3.70
2023-11-30T07:20:55.319Z,3.60
2023-11-30T07:23:21.949Z,3.60
2023-11-30T07:25:48.549Z,3.60
2023-11-30T07:28:15.247Z,3.60
2023-11-30T07:30:43.375Z,3.50
2023-11-30T07:33:11.002Z,3.60
2023-11-30T07:35:41.901Z,3.70
2023-11-30T07:38:08.845Z,3.70
2023-11-30T07:40:35.703Z,3.70
2023-11-30T07:43:02.357Z,3.80
2023-11-30T07:45:32.081Z,3.80
2023-11-30T07:48:00.476Z,3.80
2023-11-30T07:50:28.365Z,3.90
2023-11-30T07:52:55.151Z,3.90
2023-11-30T07:55:22.177Z,3.90
2023-11-30T07:57:49.962Z,3.90
2023-11-30T08:00:17.142Z,3.90
2023-11-30T08:02:44.131Z,4.00
2023-11-30T08:05:13.345Z,4.00
2023-11-30T08:07:40.000Z,4.10
2023-11-30T08:10:07.483Z,4.10
2023-11-30T08:12:34.441Z,4.10
2023-11-30T08:15:01.303Z,4.10
2023-11-30T08:17:28.078Z,4.10
2023-11-30T08:19:54.700Z,4.20
2023-11-30T08:22:21.280Z,4.40
2023-11-30T08:24:47.984Z,4.50
2023-11-30T08:27:14.665Z,4.80
2023-11-30T08:29:42.637Z,4.90
2023-11-30T08:32:09.630Z,5.30
2023-11-30T08:34:36.763Z,5.50
2023-11-30T08:37:03.679Z,5.90
2023-11-30T08:39:31.185Z,6.40
2023-11-30T08:41:57.843Z,6.80
2023-11-30T08:44:24.448Z,7.30
2023-11-30T08:46:51.376Z,7.70
2023-11-30T08:49:18.240Z,8.20
2023-11-30T08:51:45.929Z,8.50
2023-11-30T08:54:12.919Z,8.80
2023-11-30T08:56:39.571Z,9.30
2023-11-30T08:59:06.171Z,10.50
2023-11-30T09:01:33.874Z,11.80
2023-11-30T09:04:05.179Z,12.60
2023-11-30T09:06:34.242Z,12.70
2023-11-30T09:09:01.352Z,12.60
2023-11-30T09:11:31.155Z,12.40
2023-11-30T09:13:58.215Z,11.80
2023-11-30T09:16:26.467Z,11.20
2023-11-30T09:18:55.981Z,10.60
2023-11-30T09:21:24.059Z,10.20
2023-11-30T09:23:51.384Z,9.90
2023-11-30T09:26:21.721Z,9.70
2023-11-30T09:28:48.685Z,9.50
2023-11-30T09:31:15.406Z,9.30
2023-11-30T09:33:43.058Z,9.20
2023-11-30T09:36:10.319Z,9.10
2023-11-30T09:38:36.998Z,9.00
2023-11-30T09:41:06.846Z,9.10
2023-11-30T09:43:33.991Z,9.20
2023-11-30T09:46:00.904Z,9.50
2023-11-30T09:48:27.625Z,9.60
2023-11-30T09:50:54.304Z,9.80
2023-11-30T09:53:21.025Z,9.80
2023-11-30T09:55:47.615Z,10.00
2023-11-30T09:58:16.145Z,10.30
2023-11-30T10:00:43.142Z,10.90
2023-11-30T10:03:10.315Z,11.80
2023-11-30T10:05:37.023Z,12.40
2023-11-30T10:08:04.102Z,12.60
2023-11-30T10:10:30.934Z,12.60
2023-11-30T10:12:57.550Z,12.50
2023-11-30T10:15:24.296Z,12.20
2023-11-30T10:17:51.272Z,12.10
2023-11-30T10:20:19.642Z,11.90
2023-11-30T10:22:46.817Z,11.80
2023-11-30T10:25:14.119Z,11.80
2023-11-30T10:27:42.414Z,11.70
2023-11-30T10:30:12.559Z,11.90
2023-11-30T10:32:40.856Z,12.10
2023-11-30T10:35:09.059Z,12.20
2023-11-30T10:37:42.863Z,12.20
2023-11-30T10:40:11.216Z,12.20
2023-11-30T10:42:38.052Z,12.10
2023-11-30T10:45:07.737Z,12.20
2023-11-30T10:47:36.122Z,12.10
2023-11-30T10:50:06.938Z,12.10
2023-11-30T10:52:35.969Z,12.00
2023-11-30T10:55:08.132Z,12.00
2023-11-30T10:57:34.847Z,12.00
2023-11-30T11:00:02.613Z,12.00
2023-11-30T11:02:39.203Z,12.10
2023-11-30T11:05:09.422Z,12.10
2023-11-30T11:07:36.298Z,12.10
2023-11-30T11:10:07.284Z,12.20
2023-11-30T11:12:38.668Z,12.40
2023-11-30T11:15:14.377Z,12.60
2023-11-30T11:17:55.451Z,12.60
2023-11-30T11:20:30.999Z,12.70
2023-11-30T11:23:03.826Z,12.90
2023-11-30T11:25:35.666Z,13.00
2023-11-30T11:28:02.256Z,13.20
2023-11-30T11:30:29.078Z,13.40
2023-11-30T11:33:00.324Z,13.40
2023-11-30T11:35:27.956Z,13.50
2023-11-30T11:37:59.057Z,13.40
2023-11-30T11:40:27.218Z,13.40
2023-11-30T11:42:54.447Z,13.30
2023-11-30T11:45:22.281Z,13.30
2023-11-30T11:47:49.235Z,13.20
2023-11-30T11:50:16.170Z,13.10
2023-11-30T11:52:42.815Z,13.00
2023-11-30T11:55:12.301Z,12.90
2023-11-30T11:57:40.236Z,12.70
2023-11-30T12:00:14.826Z,12.50
2023-11-30T12:02:41.663Z,12.20
2023-11-30T12:05:09.777Z,12.10
2023-11-30T12:07:37.542Z,12.00
2023-11-30T12:10:05.454Z,12.00
2023-11-30T12:12:36.230Z,12.10
2023-11-30T12:15:03.092Z,12.10
2023-11-30T12:17:29.756Z,12.20
2023-11-30T12:19:56.338Z,12.30
2023-11-30T12:22:22.979Z,12.60
2023-11-30T12:24:49.697Z,12.80
2023-11-30T12:27:16.350Z,12.80
2023-11-30T12:29:43.040Z,13.20
2023-11-30T12:32:09.666Z,13.60
2023-11-30T12:34:36.254Z,14.00
2023-11-30T12:37:03.770Z,14.60
2023-11-30T12:39:30.450Z,15.20
2023-11-30T12:41:59.165Z,15.60
2023-11-30T12:44:25.853Z,15.70
2023-11-30T12:46:52.531Z,16.40
2023-11-30T12:49:19.221Z,17.10
2023-11-30T12:51:45.881Z,17.20
2023-11-30T12:54:13.307Z,17.20
2023-11-30T12:56:40.027Z,16.70
2023-11-30T12:59:06.623Z,16.30
2023-11-30T13:01:33.283Z,15.80
2023-11-30T13:04:01.520Z,15.30
2023-11-30T13:06:28.555Z,14.90
2023-11-30T13:08:55.238Z,14.50
2023-11-30T13:11:22.655Z,14.10
2023-11-30T13:13:49.239Z,13.70
2023-11-30T13:16:15.820Z,13.40
2023-11-30T13:18:43.204Z,13.10
2023-11-30T13:21:10.462Z,13.10
2023-11-30T13:23:37.104Z,13.40
2023-11-30T13:26:03.747Z,13.70
2023-11-30T13:28:37.674Z,13.90
2023-11-30T13:31:07.945Z,14.00
2023-11-30T13:33:35.411Z,14.00
2023-11-30T13:36:02.020Z,13.60
2023-11-30T13:38:28.607Z,13.20
2023-11-30T13:40:55.221Z,12.90
2023-11-30T13:43:23.445Z,12.70
2023-11-30T13:45:50.203Z,12.60
2023-11-30T13:48:17.092Z,12.50
2023-11-30T13:50:52.720Z,12.30
2023-11-30T13:53:23.124Z,12.10
2023-11-30T13:55:49.836Z,11.80
2023-11-30T13:58:16.607Z,11.50
2023-11-30T14:00:43.634Z,11.10
2023-11-30T14:03:10.453Z,10.80
2023-11-30T14:05:37.240Z,10.50
2023-11-30T14:08:04.097Z,10.30
2023-11-30T14:10:30.706Z,10.00
2023-11-30T14:12:57.424Z,9.80
2023-11-30T14:15:24.267Z,9.60
2023-11-30T14:17:51.022Z,9.40
2023-11-30T14:20:17.820Z,9.30
2023-11-30T14:22:44.441Z,9.20
2023-11-30T14:25:13.258Z,9.00
2023-11-30T14:27:39.957Z,8.80
2023-11-30T14:30:10.494Z,8.60
2023-11-30T14:32:39.719Z,8.40
2023-11-30T14:35:07.579Z,8.20
2023-11-30T14:37:34.224Z,8.10
2023-11-30T14:40:00.976Z,8.00
2023-11-30T14:42:27.716Z,7.90
2023-11-30T14:44:54.392Z,7.80
2023-11-30T14:47:26.390Z,7.70
2023-11-30T14:49:53.731Z,7.60
2023-11-30T14:52:20.460Z,7.50
2023-11-30T14:54:52.804Z,7.40
2023-11-30T14:57:20.380Z,7.40
2023-11-30T14:59:50.439Z,7.20
2023-11-30T15:02:17.408Z,7.20
2023-11-30T15:04:44.072Z,7.00
2023-11-30T15:07:10.695Z,6.90
2023-11-30T15:09:37.360Z,6.80
2023-11-30T15:12:07.186Z,6.80
2023-11-30T15:14:33.899Z,6.70
2023-11-30T15:17:00.584Z,6.60
2023-11-30T15:19:27.202Z,6.50
2023-11-30T15:21:53.950Z,6.40
2023-11-30T15:24:20.658Z,6.30
2023-11-30T15:26:47.432Z,6.20
2023-11-30T15:29:14.067Z,6.10
2023-11-30T15:31:40.791Z,6.00
2023-11-30T15:34:07.544Z,5.90
2023-11-30T15:36:34.378Z,5.80
2023-11-30T15:39:12.389Z,5.70
2023-11-30T15:41:43.181Z,5.70
2023-11-30T15:44:09.976Z,5.60
2023-11-30T15:46:36.618Z,5.50
2023-11-30T15:49:03.327Z,5.30
2023-11-30T15:51:30.018Z,5.30
2023-11-30T15:53:56.622Z,5.20
2023-11-30T15:56:23.218Z,5.10
2023-11-30T15:58:49.838Z,5.10
2023-11-30T16:01:16.507Z,5.00
2023-11-30T16:03:43.179Z,5.00
2023-11-30T16:06:12.670Z,4.90
2023-11-30T16:08:39.294Z,4.90
2023-11-30T16:11:13.066Z,4.90
2023-11-30T16:13:40.679Z,4.90
2023-11-30T16:16:07.872Z,4.90
2023-11-30T16:18:35.007Z,4.90
2023-11-30T16:21:01.899Z,4.90
2023-11-30T16:23:28.498Z,4.90
2023-11-30T16:25:55.098Z,4.90
2023-11-30T16:28:22.001Z,4.80
2023-11-30T16:30:48.644Z,4.80
2023-11-30T16:33:15.286Z,4.80
2023-11-30T16:35:41.934Z,4.80
2023-11-30T16:38:08.528Z,4.70
2023-11-30T16:40:35.544Z,4.70
2023-11-30T16:43:02.135Z,4.70
2023-11-30T16:45:29.091Z,4.70
2023-11-30T16:47:55.781Z,4.60
2023-11-30T16:50:22.367Z,4.60
2023-11-30T16:52:49.211Z,4.50
2023-11-30T16:55:15.972Z,4.50
2023-11-30T16:57:43.015Z,4.40
2023-11-30T17:00:10.323Z,4.40
2023-11-30T17:02:36.962Z,4.30
2023-11-30T17:05:03.840Z,4.30
2023-11-30T17:07:30.507Z,4.30
2023-11-30T17:09:58.500Z,4.30
2023-11-30T17:12:25.288Z,4.30
2023-11-30T17:14:51.929Z,4.20
2023-11-30T17:17:18.506Z,4.20
2023-11-30T17:19:45.114Z,4.20
2023-11-30T17:22:12.898Z,4.20
2023-11-30T17:24:42.510Z,4.20
2023-11-30T17:27:09.433Z,4.20
2023-11-30T17:29:38.846Z,4.20
2023-11-30T17:32:09.123Z,4.20
2023-11-30T17:34:39.080Z,4.20
2023-11-30T17:37:05.805Z,4.20
2023-11-30T17:39:32.517Z,4.20
2023-11-30T17:41:59.143Z,3.40
2023-11-30T17:44:26.478Z,4.20
2023-11-30T17:46:53.918Z,4.20
2023-11-30T17:49:23.560Z,4.30
2023-11-30T17:51:51.260Z,4.30
2023-11-30T17:54:18.168Z,4.20
2023-11-30T17:56:45.240Z,4.20
2023-11-30T17:59:11.998Z,4.30
2023-11-30T18:01:38.796Z,4.30
2023-11-30T18:04:05.540Z,4.30
2023-11-30T18:06:32.388Z,4.30
2023-11-30T18:08:58.994Z,4.30
2023-11-30T18:11:25.615Z,4.20
2023-11-30T18:13:52.230Z,4.20
2023-11-30T18:16:19.073Z,4.20
2023-11-30T18:18:45.853Z,4.20
2023-11-30T18:21:13.280Z,4.20
2023-11-30T18:23:39.874Z,4.20
2023-11-30T18:26:06.659Z,4.20
2023-11-30T18:28:33.249Z,4.20
2023-11-30T18:31:11.582Z,4.10
2023-11-30T18:33:43.220Z,4.10
2023-11-30T18:36:10.244Z,4.00
2023-11-30T18:38:43.969Z,4.00
2023-11-30T18:41:17.340Z,3.90
2023-11-30T18:43:44.000Z,3.90
2023-11-30T18:46:10.706Z,3.90
2023-11-30T18:48:37.688Z,3.90
2023-11-30T18:51:06.520Z,3.90
2023-11-30T18:53:33.844Z,3.90
2023-11-30T18:56:01.529Z,3.90
2023-11-30T18:58:28.155Z,3.90
2023-11-30T19:00:55.790Z,3.90
2023-11-30T19:03:23.318Z,3.90
2023-11-30T19:05:50.402Z,3.90
2023-11-30T19:08:17.067Z,3.90
2023-11-30T19:10:43.677Z,3.80
2023-11-30T19:13:10.520Z,3.80
2023-11-30T19:15:39.906Z,3.80
2023-11-30T19:18:06.884Z,3.70
2023-11-30T19:20:33.577Z,3.70
2023-11-30T19:23:00.228Z,3.70
2023-11-30T19:25:26.813Z,3.70
2023-11-30T19:27:55.787Z,3.70
2023-11-30T19:30:22.583Z,3.70
2023-11-30T19:32:49.249Z,3.70
2023-11-30T19:35:16.038Z,3.70
2023-11-30T19:37:42.640Z,3.70
2023-11-30T19:40:09.755Z,3.70
2023-11-30T19:42:36.416Z,3.70
2023-11-30T19:45:03.209Z,3.80
2023-11-30T19:47:29.872Z,3.80
2023-11-30T19:49:56.533Z,3.80
2023-11-30T19:52:23.123Z,3.90
2023-11-30T19:54:49.755Z,3.90
2023-11-30T19:57:16.410Z,3.90
2023-11-30T19:59:43.103Z,4.00
2023-11-30T20:02:09.744Z,4.00
2023-11-30T20:04:36.405Z,4.00
2023-11-30T20:07:03.219Z,4.00
2023-11-30T20:09:29.945Z,3.90
2023-11-30T20:11:56.581Z,3.90
2023-11-30T20:14:23.225Z,3.90
2023-11-30T20:16:49.921Z,3.90
2023-11-30T20:19:16.543Z,3.90
2023-11-30T20:21:43.173Z,3.90
2023-11-30T20:24:09.892Z,3.90
2023-11-30T20:26:40.552Z,3.90
2023-11-30T20:29:07.862Z,3.90
2023-11-30T20:31:34.573Z,3.90
2023-11-30T20:34:02.333Z,3.90
2023-11-30T20:36:29.135Z,3.90
2023-11-30T20:38:56.262Z,3.90
2023-11-30T20:41:25.275Z,3.90
2023-11-30T20:43:54.092Z,3.90
2023-11-30T20:46:21.325Z,3.90
2023-11-30T20:48:48.530Z,3.90
2023-11-30T20:51:18.843Z,3.90
2023-11-30T20:53:46.073Z,3.90
2023-11-30T20:56:12.824Z,3.90
2023-11-30T20:58:39.903Z,3.90
2023-11-30T21:01:07.081Z,3.80
2023-11-30T21:03:33.891Z,3.80
2023-11-30T21:06:01.954Z,3.70
2023-11-30T21:08:29.497Z,3.70
2023-11-30T21:10:56.110Z,3.60
2023-11-30T21:13:22.820Z,3.50
2023-11-30T21:15:49.585Z,3.50
2023-11-30T21:18:16.287Z,3.40
2023-11-30T21:20:42.933Z,3.40
2023-11-30T21:23:09.638Z,3.40
2023-11-30T21:25:36.221Z,3.40
2023-11-30T21:28:02.876Z,3.40
2023-11-30T21:30:29.624Z,3.50
2023-11-30T21:32:56.301Z,3.50
2023-11-30T21:35:22.924Z,3.50
2023-11-30T21:37:49.543Z,3.60
2023-11-30T21:40:16.370Z,3.70
2023-11-30T21:42:43.029Z,3.70
2023-11-30T21:45:09.940Z,3.60
2023-11-30T21:47:36.856Z,3.50
2023-11-30T21:50:19.018Z,3.50
2023-11-30T21:52:47.653Z,3.60
2023-11-30T21:55:15.111Z,3.70
2023-11-30T21:57:42.187Z,3.70
2023-11-30T22:00:13.255Z,3.70
2023-11-30T22:02:41.206Z,3.70
2023-11-30T22:05:08.371Z,3.70
2023-11-30T22:07:35.079Z,3.80
2023-11-30T22:10:03.694Z,3.80
2023-11-30T22:12:33.188Z,3.80
2023-11-30T22:15:01.049Z,3.80
2023-11-30T22:17:28.492Z,3.90
2023-11-30T22:19:55.138Z,3.90
2023-11-30T22:22:21.961Z,3.90
2023-11-30T22:24:48.963Z,3.90
2023-11-30T22:27:15.994Z,3.90
2023-11-30T22:29:42.902Z,3.90
2023-11-30T22:32:09.616Z,3.90
2023-11-30T22:34:36.351Z,3.90
2023-11-30T22:37:03.264Z,4.00
2023-11-30T22:39:30.120Z,4.10
2023-11-30T22:41:56.787Z,4.10
2023-11-30T22:44:23.413Z,4.10
2023-11-30T22:46:50.090Z,4.10
2023-11-30T22:49:17.387Z,4.20
2023-11-30T22:51:44.394Z,4.10
2023-11-30T22:54:11.032Z,4.20
2023-11-30T22:56:37.629Z,4.20
2023-11-30T22:59:04.315Z,4.20
2023-11-30T23:01:31.504Z,4.30
2023-11-30T23:03:58.511Z,4.30
2023-11-30T23:06:25.306Z,4.30
2023-11-30T23:08:52.053Z,4.30
2023-11-30T23:11:18.710Z,4.30
2023-11-30T23:13:45.446Z,4.30
2023-11-30T23:16:12.722Z,4.30
2023-11-30T23:18:39.642Z,4.30
2023-11-30T23:21:06.813Z,4.40
2023-11-30T23:23:33.405Z,4.40
2023-11-30T23:26:00.852Z,4.40
2023-11-30T23:28:27.440Z,4.40
2023-11-30T23:30:54.133Z,4.40
2023-11-30T23:33:20.811Z,4.40
2023-11-30T23:35:47.401Z,4.40
2023-11-30T23:38:14.076Z,4.40
2023-11-30T23:40:40.752Z,4.40
2023-11-30T23:43:07.382Z,4.40
2023-11-30T23:45:34.071Z,4.40
2023-11-30T23:48:00.771Z,4.40
2023-11-30T23:50:27.386Z,4.40
2023-11-30T23:52:53.979Z,4.40
2023-11-30T23:55:20.601Z,4.40
2023-11-30T23:57:47.251Z,4.50
